Time;durP1;ratioP1;P1;durP2;ratioP2;P2;SDS_P1;SDS_P2;PMS_P1;PMS_P2;Temp;Humidity;BMP_temperature;BMP_pressure;BME280_temperature;BME280_humidity;BME280_pressure;Samples;Min_cycle;Max_cycle;Signal;HPM_P1;HPM_P2
2022/01/13 00:02:05;;;;;;;4.95;1.45;;;21.40;44.60;;;;;;5014207;28;20045;-85
2022/01/13 00:04:30;;;;;;;3.28;1.45;;;21.00;44.40;;;;;;5014089;28;20056;-85
2022/01/13 00:06:56;;;;;;;4.85;1.58;;;20.90;44.30;;;;;;5013049;28;20577;-85
2022/01/13 00:09:21;;;;;;;3.90;1.60;;;21.30;44.60;;;;;;5013540;28;20056;-84
2022/01/13 00:11:48;;;;;;;4.55;1.75;;;21.90;44.90;;;;;;5013930;28;20046;-85
2022/01/13 00:22:01;;;;;;;3.53;1.60;;;20.90;44.50;;;;;;4993630;28;20055;-85
2022/01/13 00:24:27;;;;;;;4.25;1.80;;;20.80;44.40;;;;;;4993939;28;20121;-84
2022/01/13 00:26:53;;;;;;;3.60;1.58;;;20.80;44.40;;;;;;4993700;28;20145;-84
2022/01/13 00:29:25;;;;;;;4.43;2.10;;;20.80;44.40;;;;;;4993473;28;20088;-85
2022/01/13 00:31:51;;;;;;;3.25;1.50;;;20.80;44.40;;;;;;4994028;28;20050;-84
2022/01/13 00:34:16;;;;;;;3.63;1.77;;;20.80;44.40;;;;;;4992543;28;20050;-84
2022/01/13 00:36:42;;;;;;;3.75;1.48;;;20.80;44.40;;;;;;4994143;28;20136;-84
2022/01/13 00:39:09;;;;;;;3.70;1.95;;;20.70;44.40;;;;;;4994056;28;20042;-84
2022/01/13 00:41:34;;;;;;;3.13;1.33;;;20.80;44.50;;;;;;4992890;28;20487;-84
2022/01/13 00:44:02;;;;;;;3.97;1.63;;;20.70;44.40;;;;;;4993656;28;20136;-84
2022/01/13 00:46:38;;;;;;;3.22;1.50;;;20.70;44.50;;;;;;4994019;28;20371;-84
2022/01/13 00:49:04;;;;;;;4.15;1.70;;;20.70;44.50;;;;;;4992665;28;20046;-84
2022/01/13 00:51:29;;;;;;;5.88;2.00;;;20.70;44.50;;;;;;4977491;28;20041;-84
2022/01/13 00:53:56;;;;;;;4.15;1.60;;;20.70;44.50;;;;;;4993322;28;20038;-84
2022/01/13 00:56:22;;;;;;;4.68;1.75;;;20.70;44.50;;;;;;4992628;28;20046;-84
2022/01/13 00:58:47;;;;;;;3.90;1.83;;;20.70;44.50;;;;;;4993417;28;20072;-84
2022/01/13 01:01:13;;;;;;;5.00;1.50;;;20.70;44.50;;;;;;4993110;28;20076;-84
2022/01/13 01:03:39;;;;;;;3.15;1.45;;;20.60;44.50;;;;;;4991711;28;22012;-84
2022/01/13 01:06:05;;;;;;;3.10;1.60;;;20.60;44.50;;;;;;4993132;28;20054;-84
2022/01/13 01:08:31;;;;;;;5.68;1.90;;;20.60;44.50;;;;;;4993459;28;20501;-84
2022/01/13 01:10:59;;;;;;;3.95;1.52;;;20.60;44.60;;;;;;4992271;28;20523;-84
2022/01/13 01:13:28;;;;;;;2.78;1.40;;;20.60;44.60;;;;;;4993027;28;20045;-84
2022/01/13 01:15:56;;;;;;;3.22;1.42;;;20.60;44.60;;;;;;4993078;28;20065;-84
2022/01/13 01:18:33;;;;;;;3.35;1.48;;;20.60;44.60;;;;;;4992513;28;20049;-84
2022/01/13 01:28:48;;;;;;;3.80;1.75;;;20.50;44.60;;;;;;4992936;28;20057;-84
2022/01/13 01:31:14;;;;;;;3.55;1.55;;;20.50;44.70;;;;;;4992162;28;20053;-84
2022/01/13 01:34:08;;;;;;;4.22;1.80;;;20.50;44.70;;;;;;4976901;28;20133;-84
2022/01/13 01:36:33;;;;;;;4.25;1.60;;;21.40;45.50;;;;;;4993132;28;20739;-84
2022/01/13 01:38:59;;;;;;;3.40;1.70;;;20.50;44.70;;;;;;4992279;28;20046;-84
2022/01/13 01:41:26;;;;;;;4.40;1.75;;;20.50;44.70;;;;;;4992482;28;20076;-85
2022/01/13 01:43:53;;;;;;;3.75;1.70;;;20.50;44.70;;;;;;4992794;28;20084;-84
2022/01/13 01:46:19;;;;;;;3.83;1.70;;;20.50;44.70;;;;;;4991986;28;20046;-84
2022/01/13 01:48:55;;;;;;;3.22;1.65;;;20.50;44.80;;;;;;4992438;28;20050;-84
2022/01/13 01:51:20;;;;;;;4.28;2.10;;;20.50;45.50;;;;;;4991030;28;20144;-84
2022/01/13 01:53:46;;;;;;;3.85;1.80;;;21.10;45.50;;;;;;4992645;28;20132;-84
2022/01/13 01:56:12;;;;;;;3.17;1.70;;;20.40;44.80;;;;;;4992532;28;20042;-84
2022/01/13 01:58:38;;;;;;;4.20;1.70;;;20.40;45.50;;;;;;4975645;28;20100;-84
2022/01/13 02:01:03;;;;;;;3.72;1.52;;;20.40;44.70;;;;;;4976394;28;20052;-85
2022/01/13 02:03:30;;;;;;;3.55;1.58;;;20.40;44.80;;;;;;4992331;28;20630;-85
2022/01/13 02:05:56;;;;;;;2.70;1.52;;;20.40;44.80;;;;;;4991586;28;20056;-84
2022/01/13 02:08:22;;;;;;;4.05;1.88;;;20.40;44.80;;;;;;4975730;28;20083;-85
2022/01/13 02:10:47;;;;;;;5.50;1.67;;;20.40;44.90;;;;;;4992271;28;20054;-85
2022/01/13 02:13:18;;;;;;;3.75;1.90;;;20.30;44.80;;;;;;4972774;28;20410;-84
2022/01/13 02:15:59;;;;;;;3.73;1.73;;;20.30;44.80;;;;;;4992513;28;20081;-85
2022/01/13 02:18:25;;;;;;;3.72;1.55;;;20.30;44.80;;;;;;4992002;28;20204;-84
2022/01/13 02:20:52;;;;;;;4.63;1.95;;;20.60;45.00;;;;;;4975132;28;20530;-84
2022/01/13 02:23:34;;;;;;;3.15;1.48;;;20.50;45.00;;;;;;4976209;28;20038;-84
2022/01/13 02:26:00;;;;;;;3.88;1.88;;;20.30;44.90;;;;;;4991998;28;20061;-85
2022/01/13 02:28:27;;;;;;;3.30;1.58;;;20.20;44.80;;;;;;4991182;28;20444;-84
2022/01/13 02:30:53;;;;;;;4.45;1.50;;;20.30;44.90;;;;;;4991460;28;20058;-84
2022/01/13 02:33:18;;;;;;;4.57;1.88;;;20.20;44.80;;;;;;4992061;28;20046;-85
2022/01/13 02:35:44;;;;;;;4.22;1.67;;;20.20;44.90;;;;;;4991105;28;20060;-85
2022/01/13 02:38:10;;;;;;;3.25;1.55;;;20.20;44.90;;;;;;4992167;28;20050;-85
2022/01/13 02:40:36;;;;;;;3.80;2.08;;;20.20;44.90;;;;;;4991035;28;20042;-84
2022/01/13 02:43:02;;;;;;;3.70;1.88;;;20.20;44.90;;;;;;4991608;28;20050;-85
2022/01/13 02:45:33;;;;;;;3.80;1.80;;;20.20;44.90;;;;;;4991784;28;20049;-85
2022/01/13 02:50:43;;;;;;;3.58;1.85;;;20.20;45.00;;;;;;4991895;28;20149;-84
2022/01/13 02:53:09;;;;;;;3.85;1.95;;;20.20;44.90;;;;;;4991661;28;20133;-85
2022/01/13 02:55:34;;;;;;;3.50;1.70;;;20.10;44.90;;;;;;4991130;28;20085;-84
2022/01/13 02:58:00;;;;;;;4.13;1.80;;;20.10;44.90;;;;;;4991567;28;20143;-85
2022/01/13 03:00:26;;;;;;;3.03;1.58;;;20.10;44.90;;;;;;4991663;28;20054;-85
2022/01/13 03:02:52;;;;;;;4.15;1.50;;;20.10;45.00;;;;;;4990989;28;20132;-84
2022/01/13 03:05:17;;;;;;;2.88;1.77;;;20.70;45.30;;;;;;4991458;28;20081;-84
2022/01/13 03:07:43;;;;;;;2.78;1.27;;;20.10;45.00;;;;;;4991364;28;20056;-84
2022/01/13 03:10:09;;;;;;;2.95;1.58;;;20.10;45.00;;;;;;4990355;28;20062;-84
2022/01/13 03:12:38;;;;;;;3.70;1.70;;;20.10;45.00;;;;;;4991686;28;20050;-85
2022/01/13 03:15:04;;;;;;;2.88;1.45;;;20.10;45.00;;;;;;4991501;28;20152;-85
2022/01/13 03:17:30;;;;;;;2.92;1.40;;;20.10;45.00;;;;;;4991030;28;20741;-86
2022/01/13 03:19:55;;;;;;;4.38;1.90;;;20.10;45.00;;;;;;4992011;28;20148;-85
2022/01/13 03:22:21;;;;;;;3.42;1.50;;;20.00;45.00;;;;;;4991619;28;20402;-84
2022/01/13 03:24:47;;;;;;;3.15;1.65;;;20.00;45.10;;;;;;4990911;28;20139;-84
2022/01/13 03:27:19;;;;;;;3.40;1.50;;;20.00;45.00;;;;;;4995139;28;20042;-84
2022/01/13 03:29:45;;;;;;;4.35;2.22;;;20.00;45.10;;;;;;4994927;28;20053;-85
2022/01/13 03:32:11;;;;;;;4.28;1.90;;;20.00;45.10;;;;;;4994327;28;20041;-85
2022/01/13 03:34:37;;;;;;;3.58;1.83;;;20.00;45.10;;;;;;4994944;28;20058;-84
2022/01/13 03:37:02;;;;;;;3.22;1.70;;;20.00;45.10;;;;;;4994294;28;20058;-84
2022/01/13 03:39:28;;;;;;;4.22;2.20;;;20.00;45.10;;;;;;4978558;28;20492;-84
2022/01/13 03:41:54;;;;;;;2.85;1.60;;;20.00;45.10;;;;;;4994769;28;20050;-84
2022/01/13 03:44:27;;;;;;;4.07;2.05;;;20.00;45.10;;;;;;4994029;28;20080;-84
2022/01/13 03:46:54;;;;;;;4.25;2.03;;;20.00;45.10;;;;;;4994869;28;20153;-85
2022/01/13 03:49:20;;;;;;;3.30;1.70;;;20.00;45.20;;;;;;4994709;28;20115;-84
2022/01/13 03:51:54;;;;;;;3.30;1.40;;;20.00;45.20;;;;;;4994420;28;20053;-84
2022/01/13 03:54:32;;;;;;;3.83;1.63;;;19.90;45.10;;;;;;4994297;28;20053;-85
2022/01/13 03:57:46;;;;;;;2.67;1.20;;;19.90;45.10;;;;;;4994806;28;20041;-84
2022/01/13 04:00:53;;;;;;;4.00;1.50;;;19.90;45.10;;;;;;4978446;28;20493;-84
2022/01/13 04:03:19;;;;;;;3.45;1.67;;;19.90;45.10;;;;;;4994727;28;20050;-84
2022/01/13 04:06:08;;;;;;;3.10;1.40;;;19.90;45.10;;;;;;4993421;28;20488;-85
2022/01/13 04:08:34;;;;;;;3.20;1.60;;;19.90;45.10;;;;;;4994593;28;20045;-84
2022/01/13 04:11:06;;;;;;;3.78;1.60;;;19.90;45.10;;;;;;4994124;28;20065;-84
2022/01/13 04:16:22;;;;;;;2.97;1.30;;;20.00;45.20;;;;;;5010638;28;19929;-85
2022/01/13 04:18:48;;;;;;;3.15;1.60;;;19.90;45.10;;;;;;4994340;28;20125;-85
2022/01/13 04:21:14;;;;;;;2.95;1.40;;;19.90;45.10;;;;;;4979691;28;20105;-84
2022/01/13 04:23:40;;;;;;;3.63;1.50;;;19.90;45.20;;;;;;4958700;28;20608;-85
2022/01/13 04:26:06;;;;;;;3.03;1.50;;;19.90;45.20;;;;;;4957727;28;20502;-84
2022/01/13 04:28:36;;;;;;;3.17;1.50;;;19.90;45.20;;;;;;4974733;28;20085;-85
2022/01/13 04:31:02;;;;;;;2.97;1.70;;;20.60;45.50;;;;;;4974877;28;20042;-84
2022/01/13 04:33:32;;;;;;;2.92;1.50;;;19.90;45.20;;;;;;4957792;28;20054;-84
2022/01/13 04:35:58;;;;;;;3.75;1.40;;;19.90;45.20;;;;;;4974426;28;20082;-84
2022/01/13 04:38:24;;;;;;;3.20;1.80;;;19.90;45.20;;;;;;4973215;28;20751;-84
2022/01/13 04:40:55;;;;;;;2.83;1.42;;;19.90;45.20;;;;;;4973537;28;20057;-84
2022/01/13 04:43:29;;;;;;;4.00;1.80;;;19.90;45.20;;;;;;4974147;28;20088;-84
2022/01/13 04:45:55;;;;;;;3.50;1.58;;;19.90;45.20;;;;;;4961664;28;20152;-84
2022/01/13 04:48:20;;;;;;;3.13;1.33;;;19.90;45.20;;;;;;4978595;28;20128;-84
2022/01/13 04:50:46;;;;;;;3.28;1.40;;;20.10;45.30;;;;;;4993282;28;20053;-84
2022/01/13 04:53:12;;;;;;;2.58;1.30;;;19.90;45.20;;;;;;4993842;28;20042;-84
2022/01/13 04:55:38;;;;;;;2.72;1.50;;;19.90;45.20;;;;;;4992812;28;20052;-84
2022/01/13 04:58:04;;;;;;;3.28;1.50;;;21.10;45.90;;;;;;4993284;28;20112;-84
2022/01/13 05:00:30;;;;;;;2.63;1.30;;;21.40;46.00;;;;;;4977921;28;20514;-84
2022/01/13 05:02:56;;;;;;;2.92;1.45;;;19.90;45.30;;;;;;4992383;28;20034;-84
2022/01/13 05:05:21;;;;;;;3.90;1.50;;;19.90;45.30;;;;;;4983206;28;20215;-86
2022/01/13 05:07:47;;;;;;;3.47;1.60;;;19.90;45.30;;;;;;4993149;28;20041;-84
2022/01/13 05:10:13;;;;;;;3.38;1.75;;;19.90;45.30;;;;;;4992659;28;20575;-84
2022/01/13 05:12:53;;;;;;;3.17;1.50;;;19.90;45.30;;;;;;4992949;28;20088;-84
2022/01/13 05:15:23;;;;;;;2.22;1.20;;;19.90;45.30;;;;;;4978620;28;20058;-84
2022/01/13 05:20:28;;;;;;;3.50;1.55;;;19.90;45.40;;;;;;4973651;28;20047;-84
2022/01/13 05:22:54;;;;;;;2.40;1.13;;;20.00;45.50;;;;;;4305336;28;20002647;-84
2022/01/13 05:25:20;;;;;;;3.15;1.30;;;20.00;45.50;;;;;;4991928;28;20135;-84
2022/01/13 05:27:45;;;;;;;2.45;1.20;;;19.90;45.50;;;;;;4993194;28;20115;-84
2022/01/13 05:30:11;;;;;;;3.08;1.30;;;19.90;45.50;;;;;;4992312;28;20041;-84
2022/01/13 05:32:37;;;;;;;2.78;1.40;;;20.00;45.50;;;;;;4991686;28;20058;-84
2022/01/13 05:35:03;;;;;;;2.25;1.05;;;20.00;45.50;;;;;;4992864;28;20045;-84
2022/01/13 05:37:28;;;;;;;2.75;1.15;;;20.00;45.50;;;;;;4992259;28;20041;-84
2022/01/13 05:39:54;;;;;;;2.25;1.20;;;20.00;45.50;;;;;;4992743;28;20135;-84
2022/01/13 05:42:19;;;;;;;2.63;1.20;;;20.10;45.50;;;;;;4992642;28;20410;-84
2022/01/13 05:44:46;;;;;;;2.67;1.20;;;20.00;45.50;;;;;;4991566;28;20133;-86
2022/01/13 05:47:12;;;;;;;2.78;1.27;;;20.10;45.50;;;;;;4992344;28;20049;-85
2022/01/13 05:49:40;;;;;;;2.28;1.15;;;20.10;45.60;;;;;;4992522;28;20089;-85
2022/01/13 05:52:06;;;;;;;2.42;1.02;;;20.10;45.50;;;;;;4991455;28;20061;-84
2022/01/13 05:54:32;;;;;;;2.08;0.98;;;20.10;45.60;;;;;;4991699;28;20061;-85
2022/01/13 05:56:58;;;;;;;2.83;1.20;;;20.20;45.60;;;;;;4992243;28;20046;-85
2022/01/13 05:59:24;;;;;;;2.40;1.02;;;20.20;45.60;;;;;;4991565;28;20042;-84
2022/01/13 06:01:49;;;;;;;2.17;1.00;;;20.20;45.60;;;;;;4992426;28;20050;-84
2022/01/13 06:04:15;;;;;;;1.73;0.85;;;20.20;45.50;;;;;;4992279;28;20113;-84
2022/01/13 06:06:41;;;;;;;2.15;1.00;;;20.20;45.50;;;;;;4991356;28;20046;-84
2022/01/13 06:09:06;;;;;;;2.78;1.33;;;20.30;45.60;;;;;;4990848;28;20049;-85
2022/01/13 06:11:38;;;;;;;2.25;1.00;;;20.30;45.50;;;;;;4974103;28;20052;-84
2022/01/13 06:14:04;;;;;;;2.13;1.02;;;20.30;45.50;;;;;;4973025;28;20079;-85
2022/01/13 06:16:30;;;;;;;2.10;1.00;;;20.30;45.50;;;;;;4970857;28;20528;-85
2022/01/13 06:18:55;;;;;;;1.88;0.93;;;21.30;46.00;;;;;;4971779;28;20049;-84
2022/01/13 06:21:21;;;;;;;2.05;1.00;;;20.30;45.50;;;;;;4972378;28;20081;-85
2022/01/13 06:23:47;;;;;;;2.13;1.10;;;20.30;45.40;;;;;;4972752;28;20077;-85
2022/01/13 06:26:12;;;;;;;2.60;1.13;;;20.40;45.50;;;;;;4955920;28;20046;-85
2022/01/13 06:28:38;;;;;;;2.35;1.02;;;20.40;45.40;;;;;;4972612;28;20513;-85
2022/01/13 06:31:03;;;;;;;2.17;0.90;;;20.40;45.50;;;;;;4965786;28;20066;-85
2022/01/13 06:33:29;;;;;;;2.05;0.90;;;20.40;45.40;;;;;;4981977;28;20050;-86
2022/01/13 06:35:55;;;;;;;2.33;1.10;;;20.40;45.40;;;;;;4971095;28;20470;-85
2022/01/13 06:38:20;;;;;;;2.70;1.10;;;20.40;45.40;;;;;;4974849;28;20136;-85
2022/01/13 06:40:47;;;;;;;1.85;1.00;;;20.50;45.40;;;;;;4967392;28;20050;-85
2022/01/13 06:43:13;;;;;;;1.70;0.90;;;20.50;45.40;;;;;;4959900;28;20517;-85
2022/01/13 06:45:38;;;;;;;1.55;0.80;;;20.50;45.40;;;;;;4952928;28;20046;-85
2022/01/13 06:48:04;;;;;;;1.52;0.90;;;20.50;45.40;;;;;;4954324;28;20541;-85
2022/01/13 06:50:30;;;;;;;1.70;0.85;;;20.60;45.50;;;;;;4971686;28;20101;-85
2022/01/13 06:52:56;;;;;;;1.80;0.90;;;20.50;45.30;;;;;;4971653;28;20050;-84
2022/01/13 06:55:22;;;;;;;1.25;0.68;;;20.60;45.40;;;;;;4971188;28;20498;-84
2022/01/13 06:57:47;;;;;;;1.70;0.80;;;20.60;45.40;;;;;;4972189;28;20192;-85
2022/01/13 07:00:13;;;;;;;1.88;0.90;;;20.60;45.40;;;;;;4970835;28;20452;-86
2022/01/13 07:02:39;;;;;;;2.25;1.00;;;20.60;45.30;;;;;;4969174;28;20038;-86
2022/01/13 07:05:05;;;;;;;2.17;0.98;;;20.60;45.30;;;;;;4961458;28;20105;-86
2022/01/13 07:07:41;;;;;;;1.98;0.88;;;20.60;45.30;;;;;;4975803;28;20057;-85
2022/01/13 07:10:10;;;;;;;1.60;0.90;;;22.00;46.10;;;;;;4974993;28;20108;-86
2022/01/13 07:12:36;;;;;;;1.35;0.70;;;22.00;46.70;;;;;;4975876;28;20553;-85
2022/01/13 07:15:02;;;;;;;2.05;0.77;;;21.00;45.40;;;;;;4974704;28;20138;-86
2022/01/13 07:17:28;;;;;;;2.10;1.00;;;20.70;45.30;;;;;;4976155;28;20042;-87
2022/01/13 07:19:54;;;;;;;2.45;0.95;;;20.70;45.30;;;;;;4959556;28;20056;-86
2022/01/13 07:22:19;;;;;;;1.30;0.73;;;20.70;45.30;;;;;;4958845;28;20042;-87
2022/01/13 07:24:59;;;;;;;2.03;0.80;;;20.70;45.20;;;;;;4973967;28;20076;-86
2022/01/13 07:27:36;;;;;;;2.47;1.17;;;19.80;44.80;;;;;;4975191;28;20479;-84
2022/01/13 07:30:11;;;;;;;2.45;1.00;;;22.00;46.00;;;;;;4974595;28;20041;-86
2022/01/13 07:32:46;;;;;;;1.83;0.90;;;20.70;45.70;;;;;;4974869;28;20101;-86
2022/01/13 07:35:18;;;;;;;1.90;0.98;;;21.40;45.70;;;;;;4959286;28;20057;-87
2022/01/13 07:37:46;;;;;;;1.83;1.10;;;18.70;44.20;;;;;;4975207;28;20089;-87
2022/01/13 07:40:13;;;;;;;2.03;1.10;;;20.70;45.30;;;;;;4976668;28;20132;-85
2022/01/13 07:42:42;;;;;;;1.85;0.90;;;20.70;45.10;;;;;;4974892;28;20151;-85
2022/01/13 07:45:12;;;;;;;2.63;1.10;;;20.70;45.10;;;;;;4970821;28;20495;-85
2022/01/13 07:47:53;;;;;;;1.95;1.05;;;20.70;45.10;;;;;;4965549;23;20512;-85
2022/01/13 07:50:18;;;;;;;2.28;1.08;;;22.30;46.20;;;;;;4970909;28;20054;-85
2022/01/13 07:52:44;;;;;;;1.73;0.90;;;21.70;46.10;;;;;;4965672;28;20050;-85
2022/01/13 07:55:16;;;;;;;1.55;0.90;;;20.70;45.10;;;;;;4971207;28;20046;-85
2022/01/13 07:57:41;;;;;;;2.30;1.13;;;21.30;45.70;;;;;;4974418;28;20042;-85
2022/01/13 08:00:09;;;;;;;2.88;1.30;;;21.30;45.40;;;;;;4975110;28;20077;-85
2022/01/13 08:02:34;;;;;;;2.13;0.93;;;20.70;45.00;;;;;;4972775;28;20127;-85
2022/01/13 08:05:00;;;;;;;2.20;0.95;;;20.70;45.00;;;;;;4952796;28;20045;-84
2022/01/13 08:07:25;;;;;;;2.38;1.08;;;20.70;45.00;;;;;;4957128;28;20047;-84
2022/01/13 08:09:54;;;;;;;2.20;0.98;;;21.00;45.20;;;;;;4954606;28;20554;-85
2022/01/13 08:12:22;;;;;;;2.85;0.93;;;20.60;45.00;;;;;;4964552;28;20049;-84
2022/01/13 08:14:50;;;;;;;2.58;1.17;;;21.10;45.80;;;;;;4971160;28;20050;-85
2022/01/13 08:19:45;;;;;;;3.13;1.13;;;21.70;45.60;;;;;;4974451;28;20050;-85
2022/01/13 08:20:10;;;;;;;3.60;1.30;;;20.60;45.00;;;;;;4972406;28;20514;-85
2022/01/13 08:22:36;;;;;;;2.58;0.88;;;20.60;45.10;;;;;;4974460;28;20096;-84
2022/01/13 08:25:02;;;;;;;3.78;1.15;;;20.60;45.00;;;;;;4974605;28;20077;-85
2022/01/13 08:27:27;;;;;;;2.83;1.05;;;20.60;45.00;;;;;;4957692;28;20042;-84
2022/01/13 08:29:53;;;;;;;2.83;1.17;;;21.30;45.40;;;;;;4974231;28;20134;-86
2022/01/13 08:32:19;;;;;;;2.85;1.38;;;20.60;45.00;;;;;;4964093;28;20046;-86
2022/01/13 08:34:45;;;;;;;2.20;0.93;;;20.60;45.10;;;;;;4964312;28;20130;-85
2022/01/13 08:37:10;;;;;;;2.40;1.15;;;20.60;45.00;;;;;;4964583;28;20107;-85
2022/01/13 08:39:43;;;;;;;2.95;1.10;;;20.60;45.00;;;;;;4960194;28;20050;-84
2022/01/13 08:42:08;;;;;;;;;;;20.60;45.10;;;;;;4955418;28;20053;-85
2022/01/13 08:44:49;;;;;;;2.72;1.00;;;22.30;46.20;;;;;;4954808;28;20012;-85
2022/01/13 08:47:15;;;;;;;3.30;1.40;;;18.10;44.00;;;;;;4953806;28;20043;-86
2022/01/13 08:49:41;;;;;;;2.13;1.05;;;22.30;46.10;;;;;;4941461;28;20065;-85
2022/01/13 08:52:23;;;;;;;3.03;1.13;;;20.60;45.20;;;;;;4967592;28;20046;-84
2022/01/13 08:54:50;;;;;;;2.28;1.27;;;22.20;46.10;;;;;;4968562;28;20043;-86
2022/01/13 08:59:53;;;;;;;2.85;1.00;;;20.60;45.10;;;;;;4988294;28;20042;-85
2022/01/13 09:02:18;;;;;;;2.95;1.30;;;22.00;46.30;;;;;;4972629;28;20502;-85
2022/01/13 09:05:12;;;;;;;2.58;1.10;;;20.80;45.90;;;;;;4972712;28;20047;-85
2022/01/13 09:11:19;;;;;;;6.18;2.78;;;20.60;45.10;;;;;;5016067;23;20058;-91
2022/01/13 09:13:55;;;;;;;6.97;2.75;;;20.10;44.80;;;;;;5006175;28;20046;-89
2022/01/13 09:16:23;;;;;;;5.25;2.17;;;21.80;45.70;;;;;;4996504;28;20484;-89
2022/01/13 09:21:24;;;;;;;3.97;1.70;;;21.00;45.60;;;;;;5006639;28;20485;-90
2022/01/13 09:23:49;;;;;;;4.95;2.00;;;20.60;44.90;;;;;;5006156;28;20450;-84
2022/01/13 09:26:15;;;;;;;4.18;1.75;;;20.80;45.20;;;;;;5000404;28;20084;-84
2022/01/13 09:28:47;;;;;;;4.75;2.03;;;21.20;45.60;;;;;;4925037;28;20592;-86
2022/01/13 09:31:15;;;;;;;5.00;2.00;;;21.80;46.90;;;;;;5004679;28;20071;-85
2022/01/13 09:34:12;;;;;;;;;;;;;;;;;;;;;
2022/01/13 09:36:49;;;;;;;6.25;1.70;;;21.80;45.80;;;;;;4997568;28;20058;-85
2022/01/13 09:39:15;;;;;;;7.43;1.60;;;20.10;45.40;;;;;;4980922;28;20065;-87
2022/01/13 09:41:44;;;;;;;6.13;1.77;;;20.70;45.50;;;;;;4999994;28;20398;-86
2022/01/13 09:44:12;;;;;;;6.25;2.13;;;20.20;45.00;;;;;;4990519;28;20100;-83
2022/01/13 09:46:45;;;;;;;10.47;3.07;;;20.50;45.30;;;;;;4998989;28;20042;-86
2022/01/13 09:49:11;;;;;;;18.20;6.15;;;18.60;44.50;;;;;;5000362;28;20671;-85
2022/01/13 09:51:37;;;;;;;24.70;9.60;;;21.70;46.00;;;;;;4997549;28;20129;-90
2022/01/13 09:54:03;;;;;;;22.70;9.02;;;20.50;45.40;;;;;;5004130;28;20144;-88
2022/01/13 09:56:29;;;;;;;29.10;9.65;;;20.50;45.40;;;;;;5007808;28;20046;-90
2022/01/13 09:58:54;;;;;;;22.35;7.90;;;21.70;46.10;;;;;;4995337;28;20054;-86
2022/01/13 10:01:20;;;;;;;18.38;7.07;;;20.50;45.50;;;;;;4976007;28;20061;-89
2022/01/13 10:03:46;;;;;;;21.27;7.30;;;20.50;45.60;;;;;;5008719;28;20560;-86
2022/01/13 10:06:14;;;;;;;18.73;7.18;;;20.50;45.60;;;;;;5008910;28;20053;-85
2022/01/13 10:08:47;;;;;;;18.63;6.07;;;20.50;45.60;;;;;;4999376;28;20050;-90
2022/01/13 10:11:33;;;;;;;16.50;6.10;;;20.40;45.50;;;;;;4987669;28;20057;-85
2022/01/13 10:17:21;;;;;;;16.45;6.03;;;20.40;45.60;;;;;;4940861;28;20116;-90
2022/01/13 10:19:47;;;;;;;16.60;5.50;;;20.40;45.60;;;;;;4986338;28;20061;-90
2022/01/13 10:22:37;;;;;;;16.50;5.47;;;20.40;46.20;;;;;;4990305;28;20046;-88
2022/01/13 10:25:35;;;;;;;14.38;5.10;;;20.40;45.60;;;;;;5001427;28;20046;-88
2022/01/13 10:28:21;;;;;;;13.48;5.13;;;20.30;45.50;;;;;;5000029;28;20081;-87
2022/01/13 10:30:49;;;;;;;13.18;5.22;;;20.30;46.00;;;;;;4998762;28;20129;-85
2022/01/13 10:33:16;;;;;;;16.55;5.50;;;21.30;46.10;;;;;;5006080;28;20088;-85
2022/01/13 10:35:42;;;;;;;14.23;4.85;;;20.20;45.50;;;;;;5003160;28;20060;-85
2022/01/13 10:38:08;;;;;;;13.65;4.63;;;21.40;46.20;;;;;;4993240;28;20030;-85
2022/01/13 10:40:39;;;;;;;15.98;5.60;;;20.50;45.80;;;;;;4997227;28;20060;-84
2022/01/13 10:43:06;;;;;;;16.67;5.20;;;20.50;45.90;;;;;;5000149;28;20092;-89
2022/01/13 10:45:58;;;;;;;14.15;5.20;;;20.40;45.80;;;;;;4996140;28;20050;-91
2022/01/13 10:48:25;;;;;;;14.07;4.95;;;20.50;45.80;;;;;;5005173;28;20054;-91
2022/01/13 10:51:04;;;;;;;13.48;4.32;;;21.30;46.30;;;;;;4995575;28;20045;-88
2022/01/13 10:53:40;;;;;;;13.65;5.03;;;20.40;45.80;;;;;;5015622;28;20060;-90
2022/01/13 10:56:10;;;;;;;12.05;4.40;;;20.50;45.90;;;;;;5028616;28;20124;-85
2022/01/13 10:58:49;;;;;;;14.02;4.63;;;20.40;45.80;;;;;;5020736;28;20571;-84
2022/01/13 11:01:40;;;;;;;10.02;3.75;;;20.50;45.90;;;;;;5017505;23;20058;31
2022/01/13 11:04:34;;;;;;;13.65;4.20;;;20.30;46.00;;;;;;4903656;29;20051;-93
2022/01/13 11:07:39;;;;;;;10.80;3.80;;;19.80;45.50;;;;;;4920350;29;20110;-93
2022/01/13 11:10:06;;;;;;;10.40;3.45;;;20.00;45.50;;;;;;4921408;29;20484;-92
2022/01/13 11:13:03;;;;;;;10.05;4.00;;;20.50;46.50;;;;;;4921618;29;20090;-93
2022/01/13 11:16:02;;;;;;;8.25;3.22;;;19.40;45.20;;;;;;4933899;23;20044;-93
2022/01/13 11:18:46;;;;;;;8.23;3.58;;;20.50;45.90;;;;;;4977744;28;20391;-93
2022/01/13 11:22:07;;;;;;;10.68;3.67;;;21.70;47.00;;;;;;4978537;28;20046;-92
2022/01/13 11:25:15;;;;;;;8.73;3.40;;;21.20;46.10;;;;;;4919499;29;20055;-93
2022/01/13 11:31:12;;;;;;;7.53;3.03;;;20.60;45.70;;;;;;5007658;28;20053;-93
2022/01/13 11:34:29;;;;;;;8.73;3.20;;;20.80;45.80;;;;;;4998157;28;20058;-92
2022/01/13 11:37:46;;;;;;;9.13;3.40;;;21.10;46.00;;;;;;4997405;28;20061;-92
2022/01/13 11:41:14;;;;;;;9.20;2.88;;;20.40;45.50;;;;;;4997676;28;20432;-92
2022/01/13 11:44:26;;;;;;;8.25;3.47;;;20.70;45.70;;;;;;5001415;28;20056;-91
2022/01/13 11:47:33;;;;;;;8.10;3.30;;;21.40;46.50;;;;;;4996919;28;20046;-92
2022/01/13 11:50:24;;;;;;;6.40;2.47;;;20.70;45.70;;;;;;4994863;28;20486;-92
2022/01/13 11:53:33;;;;;;;7.80;2.80;;;20.50;45.60;;;;;;4991919;28;20100;-91
2022/01/13 11:56:05;;;;;;;7.15;3.00;;;20.30;45.40;;;;;;4982977;28;20945;-92
2022/01/13 11:58:47;;;;;;;8.68;2.80;;;20.60;45.70;;;;;;4993266;28;20038;-90
2022/01/13 12:05:14;;;;;;;7.47;3.15;;;20.20;45.30;;;;;;4631651;28;10000780;-91
2022/01/13 12:11:58;;;;;;;5.82;2.13;;;19.90;45.10;;;;;;4993051;28;20096;-85
2022/01/13 12:14:24;;;;;;;5.88;2.10;;;19.80;45.10;;;;;;4976281;28;20070;-91
2022/01/13 12:17:12;;;;;;;5.78;2.35;;;20.90;46.30;;;;;;4976208;28;20387;-90
2022/01/13 12:20:02;;;;;;;5.47;2.15;;;20.70;45.80;;;;;;4975329;28;20058;-91
2022/01/13 12:22:48;;;;;;;5.43;2.08;;;21.60;46.70;;;;;;4979245;28;20120;-90
2022/01/13 12:25:41;;;;;;;6.80;2.40;;;20.60;46.10;;;;;;4979048;28;20053;-92
2022/01/13 12:28:19;;;;;;;6.45;2.60;;;20.20;45.70;;;;;;4986863;28;20049;-91
2022/01/13 12:30:50;;;;;;;5.32;2.25;;;20.70;46.30;;;;;;4979160;28;20533;-91
2022/01/13 12:34:07;;;;;;;6.38;2.47;;;21.30;46.80;;;;;;4977105;28;20053;-91
2022/01/13 12:40:50;;;;;;;6.70;2.47;;;20.40;45.40;;;;;;4991625;23;20060;-92
2022/01/13 12:44:20;;;;;;;5.93;2.00;;;20.50;45.40;;;;;;4988506;28;20045;-93
2022/01/13 12:47:18;;;;;;;4.75;1.92;;;21.90;46.80;;;;;;4898187;29;20056;-90
2022/01/13 12:50:14;;;;;;;7.05;2.38;;;19.70;45.00;;;;;;5032210;23;20050;-90
2022/01/13 12:52:48;;;;;;;5.97;2.53;;;20.50;45.40;;;;;;5005055;28;20532;-90
2022/01/13 12:55:14;;;;;;;6.15;1.92;;;19.60;45.20;;;;;;5000586;28;20493;-85
2022/01/13 12:57:52;;;;;;;5.60;2.50;;;19.60;45.20;;;;;;5011687;28;20133;-90
2022/01/13 13:00:24;;;;;;;6.50;2.20;;;21.70;46.20;;;;;;5010920;28;20422;-92
2022/01/13 13:05:53;;;;;;;6.43;2.50;;;21.50;46.10;;;;;;4991496;28;20128;-91
2022/01/13 13:08:21;;;;;;;8.23;2.45;;;22.10;46.40;;;;;;4990770;28;20390;-90
2022/01/13 13:11:07;;;;;;;6.03;2.28;;;20.00;45.20;;;;;;4991144;28;20501;-90
2022/01/13 13:13:37;;;;;;;5.72;2.20;;;21.10;45.90;;;;;;4989424;28;20120;-90
2022/01/13 13:16:06;;;;;;;4.95;1.92;;;22.10;47.00;;;;;;4991460;28;20068;-91
2022/01/13 13:18:51;;;;;;;5.95;2.58;;;20.50;45.70;;;;;;4988422;28;20502;-91
2022/01/13 13:21:30;;;;;;;5.30;2.10;;;21.70;46.50;;;;;;5005476;28;20056;-89
2022/01/13 13:24:11;;;;;;;6.72;2.95;;;22.20;46.90;;;;;;5006523;23;20045;-92
2022/01/13 13:26:37;;;;;;;6.60;3.13;;;21.90;46.50;;;;;;4996454;28;20085;-92
2022/01/13 13:29:02;;;;;;;5.78;2.90;;;21.30;46.20;;;;;;4989194;28;20046;-92
2022/01/13 13:31:45;;;;;;;7.20;3.67;;;21.90;46.60;;;;;;4992562;28;20435;-91
2022/01/13 13:34:30;;;;;;;8.30;3.67;;;21.50;46.80;;;;;;4976355;28;20038;-90
2022/01/13 13:37:17;;;;;;;7.10;3.20;;;22.30;47.10;;;;;;4975394;28;20051;-90
2022/01/13 13:39:43;;;;;;;5.93;2.65;;;19.70;46.20;;;;;;4991247;28;20546;-92
2022/01/13 13:49:24;;;;;;;6.82;2.92;;;20.90;45.70;;;;;;4998233;28;20061;-90
2022/01/13 13:52:06;;;;;;;6.65;2.53;;;22.20;46.70;;;;;;4975119;28;20104;-89
2022/01/13 13:54:49;;;;;;;4.60;2.22;;;20.50;45.70;;;;;;4976883;28;20050;-91
2022/01/13 13:57:15;;;;;;;9.07;2.15;;;20.50;45.40;;;;;;4975585;28;20077;-89
2022/01/13 14:00:15;;;;;;;4.65;2.35;;;21.60;46.20;;;;;;4974411;28;20490;-89
2022/01/13 14:03:21;;;;;;;5.63;1.75;;;20.60;45.70;;;;;;4966245;28;20505;-90
2022/01/13 14:06:51;;;;;;;5.18;2.33;;;19.90;45.70;;;;;;4969025;28;20058;-92
2022/01/13 14:10:13;;;;;;;4.03;1.85;;;20.50;45.50;;;;;;4994346;28;20497;-89
2022/01/13 14:13:16;;;;;;;5.78;2.15;;;20.60;45.50;;;;;;4897713;29;20105;-89
2022/01/13 14:16:01;;;;;;;4.03;2.03;;;20.80;45.80;;;;;;4897770;29;20104;-91
2022/01/13 14:19:15;;;;;;;4.82;2.00;;;20.70;45.60;;;;;;4897056;29;21304;-91